createdAt,value
2023-04-15T00:02:18.608Z,99556.50
2023-04-15T00:05:22.253Z,99549.69
2023-04-15T00:08:25.602Z,99554.31
2023-04-15T00:11:28.924Z,99533.41
2023-04-15T00:14:32.121Z,99555.41
2023-04-15T00:17:38.432Z,99558.13
2023-04-15T00:20:42.403Z,99556.47
2023-04-15T00:23:45.671Z,99555.66
2023-04-15T00:26:49.142Z,99558.28
2023-04-15T00:29:54.096Z,99559.19
2023-04-15T00:32:56.567Z,99557.59
2023-04-15T00:36:01.004Z,99557.63
2023-04-15T00:39:06.362Z,99547.41
2023-04-15T00:42:10.640Z,99538.75
2023-04-15T00:45:13.398Z,99540.53
2023-04-15T00:48:17.544Z,99534.47
2023-04-15T00:51:20.425Z,99543.28
2023-04-15T00:54:24.019Z,99549.34
2023-04-15T00:57:28.592Z,99541.63
2023-04-15T01:00:31.728Z,99541.53
2023-04-15T01:03:36.551Z,99537.94
2023-04-15T01:06:40.199Z,99536.34
2023-04-15T01:09:43.465Z,99535.41
2023-04-15T01:12:47.039Z,99539.81
2023-04-15T01:15:51.024Z,99537.22
2023-04-15T01:18:56.554Z,99546.09
2023-04-15T01:22:02.078Z,99544.37
2023-04-15T01:25:11.437Z,99537.56
2023-04-15T01:28:13.960Z,99533.44
2023-04-15T01:31:18.220Z,99542.06
2023-04-15T01:34:21.132Z,99539.75
2023-04-15T01:37:25.291Z,99542.56
2023-04-15T01:40:27.974Z,99546.81
2023-04-15T01:43:31.455Z,99549.56
2023-04-15T01:46:37.154Z,99544.28
2023-04-15T01:49:40.566Z,99545.16
2023-04-15T01:52:45.957Z,99550.28
2023-04-15T01:55:49.611Z,99553.97
2023-04-15T01:58:53.191Z,99547.91
2023-04-15T02:01:56.315Z,99549.13
2023-04-15T02:04:59.481Z,99553.44
2023-04-15T02:08:05.381Z,99557.78
2023-04-15T02:11:08.873Z,99556.06
2023-04-15T02:14:11.829Z,99559.50
2023-04-15T02:17:14.611Z,99556.03
2023-04-15T02:20:21.830Z,99563.00
2023-04-15T02:23:24.905Z,99564.81
2023-04-15T02:26:41.244Z,99564.94
2023-04-15T02:29:45.820Z,99566.69
2023-04-15T02:32:48.908Z,99552.03
2023-04-15T02:35:53.284Z,99558.00
2023-04-15T02:38:55.811Z,99549.41
2023-04-15T02:42:00.737Z,99555.47
2023-04-15T02:45:03.684Z,99565.81
2023-04-15T02:48:07.154Z,99560.63
2023-04-15T02:51:20.038Z,99552.81
2023-04-15T02:54:23.962Z,99553.69
2023-04-15T02:57:39.333Z,99555.47
2023-04-15T03:00:42.595Z,99537.06
2023-04-15T03:03:46.218Z,99557.28
2023-04-15T03:06:50.114Z,99555.50
2023-04-15T03:09:54.555Z,99555.41
2023-04-15T03:13:04.916Z,99531.75
2023-04-15T03:16:09.708Z,99550.19
2023-04-15T03:19:13.185Z,99549.34
2023-04-15T03:22:17.231Z,99540.59
2023-04-15T03:25:20.581Z,99546.69
2023-04-15T03:28:25.852Z,99543.06
2023-04-15T03:31:31.095Z,99544.84
2023-04-15T03:34:33.933Z,99541.38
2023-04-15T03:37:36.937Z,99540.59
2023-04-15T03:40:43.507Z,99540.66
2023-04-15T03:43:48.489Z,99550.22
2023-04-15T03:46:51.235Z,99545.88
2023-04-15T03:49:55.728Z,99545.88
2023-04-15T03:52:58.612Z,99549.25
2023-04-15T03:56:02.594Z,99543.06
2023-04-15T03:59:05.001Z,99535.09
2023-04-15T04:02:08.657Z,99549.97
2023-04-15T04:05:13.965Z,99554.31
2023-04-15T04:08:16.726Z,99551.72
2023-04-15T04:11:19.760Z,99535.09
2023-04-15T04:14:29.311Z,99545.94
2023-04-15T04:17:40.244Z,99552.03
2023-04-15T04:20:43.492Z,99556.50
2023-04-15T04:23:47.276Z,99550.38
2023-04-15T04:26:51.421Z,99541.00
2023-04-15T04:29:54.329Z,99538.38
2023-04-15T04:32:57.153Z,99553.25
2023-04-15T04:36:00.983Z,99554.34
2023-04-15T04:39:05.000Z,99555.75
2023-04-15T04:42:07.876Z,99549.00
2023-04-15T04:45:14.440Z,99552.63
2023-04-15T04:48:20.021Z,99563.09
2023-04-15T04:51:28.825Z,99561.72
2023-04-15T04:54:32.014Z,99556.44
2023-04-15T04:57:36.294Z,99553.16
2023-04-15T05:00:43.473Z,99560.59
2023-04-15T05:03:48.058Z,99551.59
2023-04-15T05:06:51.875Z,99543.34
2023-04-15T05:09:54.569Z,99554.28
2023-04-15T05:13:01.289Z,99559.72
2023-04-15T05:16:08.678Z,99552.56
2023-04-15T05:19:12.311Z,99561.41
2023-04-15T05:22:17.250Z,99561.78
2023-04-15T05:25:27.960Z,99562.66
2023-04-15T05:28:32.850Z,99559.50
2023-04-15T05:31:37.843Z,99565.91
2023-04-15T05:34:41.096Z,99567.37
2023-04-15T05:37:44.336Z,99566.84
2023-04-15T05:40:50.675Z,99573.06
2023-04-15T05:43:58.958Z,99566.37
2023-04-15T05:47:03.692Z,99572.31
2023-04-15T05:50:07.466Z,99573.25
2023-04-15T05:53:10.648Z,99583.81
2023-04-15T05:56:13.527Z,99577.97
2023-04-15T05:59:21.388Z,99578.66
2023-04-15T06:02:32.072Z,99582.97
2023-04-15T06:05:37.400Z,99576.69
2023-04-15T06:08:43.251Z,99577.59
2023-04-15T06:11:54.646Z,99573.81
2023-04-15T06:15:04.849Z,99579.09
2023-04-15T06:18:08.002Z,99582.78
2023-04-15T06:21:19.157Z,99582.56
2023-04-15T06:24:23.612Z,99574.25
2023-04-15T06:27:30.076Z,99592.19
2023-04-15T06:30:41.891Z,99586.91
2023-04-15T06:33:45.636Z,99586.06
2023-04-15T06:36:49.856Z,99585.53
2023-04-15T06:39:54.635Z,99587.47
2023-04-15T06:43:16.866Z,99598.63
2023-04-15T06:46:20.375Z,99595.81
2023-04-15T06:49:31.897Z,99596.09
2023-04-15T06:52:42.852Z,99602.94
2023-04-15T06:55:59.743Z,99606.44
2023-04-15T06:59:06.936Z,99596.28
2023-04-15T07:02:16.933Z,99596.28
2023-04-15T07:05:23.922Z,99588.41
2023-04-15T07:08:35.526Z,99608.53
2023-04-15T07:11:41.315Z,99604.13
2023-04-15T07:14:47.969Z,99603.06
2023-04-15T07:17:54.878Z,99606.81
2023-04-15T07:21:02.814Z,99610.31
2023-04-15T07:24:08.805Z,99612.06
2023-04-15T07:27:12.903Z,99604.09
2023-04-15T07:30:19.784Z,99607.34
2023-04-15T07:33:27.949Z,99612.09
2023-04-15T07:36:37.030Z,99614.09
2023-04-15T07:39:46.712Z,99615.53
2023-04-15T07:42:51.841Z,99608.25
2023-04-15T07:45:55.734Z,99615.16
2023-04-15T07:49:00.931Z,99617.06
2023-04-15T07:52:13.301Z,99614.72
2023-04-15T07:55:19.397Z,99608.38
2023-04-15T07:58:24.875Z,99615.59
2023-04-15T08:01:28.438Z,99613.72
2023-04-15T08:04:34.909Z,99618.56
2023-04-15T08:07:39.867Z,99619.59
2023-04-15T08:10:45.467Z,99628.31
2023-04-15T08:13:51.897Z,99614.16
2023-04-15T08:17:05.801Z,99622.25
2023-04-15T08:20:14.849Z,99623.06
2023-04-15T08:23:18.448Z,99637.25
2023-04-15T08:26:30.705Z,99638.38
2023-04-15T08:29:38.854Z,99629.16
2023-04-15T08:32:51.849Z,99640.59
2023-04-15T08:36:09.359Z,99633.59
2023-04-15T08:39:14.504Z,99635.44
2023-04-15T08:42:37.530Z,99638.19
2023-04-15T08:45:40.641Z,99640.81
2023-04-15T08:48:50.381Z,99650.34
2023-04-15T08:52:09.809Z,99653.94
2023-04-15T08:55:14.917Z,99655.03
2023-04-15T08:58:19.183Z,99654.28
2023-04-15T09:01:24.749Z,99655.59
2023-04-15T09:04:32.154Z,99652.31
2023-04-15T09:07:36.855Z,99644.00
2023-04-15T09:10:41.289Z,99657.56
2023-04-15T09:13:48.851Z,99663.28
2023-04-15T09:17:04.792Z,99662.56
2023-04-15T09:20:14.852Z,99661.28
2023-04-15T09:23:28.248Z,99660.78
2023-04-15T09:26:41.824Z,99656.53
2023-04-15T09:30:01.717Z,99661.47
2023-04-15T09:33:08.455Z,99660.03
2023-04-15T09:36:21.263Z,99660.94
2023-04-15T09:39:47.787Z,99664.34
2023-04-15T09:42:57.854Z,99670.78
2023-04-15T09:46:01.471Z,99675.34
2023-04-15T09:49:10.832Z,99687.06
2023-04-15T09:52:19.106Z,99678.75
2023-04-15T09:55:24.199Z,99686.34
2023-04-15T09:58:36.948Z,99691.38
2023-04-15T10:01:44.952Z,99684.09
2023-04-15T10:04:51.858Z,99694.09
2023-04-15T10:08:03.920Z,99690.66
2023-04-15T10:11:09.027Z,99689.13
2023-04-15T10:14:16.770Z,99690.38
2023-04-15T10:17:34.051Z,99693.72
2023-04-15T10:20:44.733Z,99690.41
2023-04-15T10:23:56.815Z,99690.31
2023-04-15T10:27:04.588Z,99693.22
2023-04-15T10:30:10.801Z,99692.31
2023-04-15T10:33:28.852Z,99698.34
2023-04-15T10:36:35.148Z,99701.16
2023-04-15T10:39:46.822Z,99712.09
2023-04-15T10:42:57.891Z,99707.44
2023-04-15T10:46:13.840Z,99710.25
2023-04-15T10:49:33.024Z,99714.22
2023-04-15T10:52:43.027Z,99704.03
2023-04-15T10:56:06.743Z,99712.03
2023-04-15T10:59:16.510Z,99709.41
2023-04-15T11:02:23.190Z,99721.69
2023-04-15T11:05:53.880Z,99718.37
2023-04-15T11:09:09.814Z,99724.81
2023-04-15T11:12:16.365Z,99719.44
2023-04-15T11:15:43.932Z,99721.69
2023-04-15T11:18:56.748Z,99725.19
2023-04-15T11:22:18.932Z,99715.22
2023-04-15T11:25:33.853Z,99717.50
2023-04-15T11:28:45.240Z,99721.16
2023-04-15T11:31:49.936Z,99721.69
2023-04-15T11:35:05.776Z,99709.09
2023-04-15T11:38:18.766Z,99720.66
2023-04-15T11:41:29.953Z,99722.66
2023-04-15T11:44:46.889Z,99717.28
2023-04-15T11:47:56.074Z,99721.94
2023-04-15T11:51:04.118Z,99719.28
2023-04-15T11:54:07.516Z,99721.66
2023-04-15T11:57:14.083Z,99718.28
2023-04-15T12:00:26.889Z,99720.03
2023-04-15T12:03:31.822Z,99718.41
2023-04-15T12:06:47.808Z,99722.06
2023-04-15T12:10:00.073Z,99725.84
2023-04-15T12:13:10.809Z,99732.09
2023-04-15T12:16:19.947Z,99730.41
2023-04-15T12:19:50.747Z,99719.25
2023-04-15T12:23:06.865Z,99723.41
2023-04-15T12:26:11.620Z,99727.16
2023-04-15T12:29:18.119Z,99724.03
2023-04-15T12:32:25.047Z,99730.88
2023-04-15T12:35:29.849Z,99725.03
2023-04-15T12:38:35.832Z,99720.66
2023-04-15T12:41:41.408Z,99727.00
2023-04-15T12:44:58.863Z,99727.00
2023-04-15T12:48:03.840Z,99727.66
2023-04-15T12:51:08.741Z,99736.09
2023-04-15T12:54:12.882Z,99728.53
2023-04-15T12:57:28.710Z,99741.94
2023-04-15T13:00:41.706Z,99737.62
2023-04-15T13:03:46.235Z,99728.59
2023-04-15T13:07:03.817Z,99725.75
2023-04-15T13:10:21.828Z,99724.06
2023-04-15T13:13:31.688Z,99740.72
2023-04-15T13:16:42.765Z,99742.97
2023-04-15T13:19:48.166Z,99742.06
2023-04-15T13:22:54.781Z,99747.28
2023-04-15T13:26:03.055Z,99740.75
2023-04-15T13:29:10.833Z,99743.50
2023-04-15T13:32:28.160Z,99749.50
2023-04-15T13:35:36.794Z,99747.97
2023-04-15T13:38:41.016Z,99743.84
2023-04-15T13:41:46.861Z,99751.88
2023-04-15T13:44:52.793Z,99741.37
2023-04-15T13:48:03.959Z,99746.84
2023-04-15T13:51:08.096Z,99756.03
2023-04-15T13:54:37.781Z,99755.50
2023-04-15T13:57:43.051Z,99756.16
2023-04-15T14:00:54.050Z,99754.53
2023-04-15T14:04:05.342Z,99758.75
2023-04-15T14:07:12.853Z,99764.97
2023-04-15T14:10:20.852Z,99765.50
2023-04-15T14:13:24.210Z,99776.59
2023-04-15T14:16:38.848Z,99775.34
2023-04-15T14:19:43.291Z,99760.78
2023-04-15T14:22:53.264Z,99780.69
2023-04-15T14:26:04.705Z,99777.81
2023-04-15T14:29:08.862Z,99784.06
2023-04-15T14:32:16.778Z,99792.78
2023-04-15T14:35:28.889Z,99791.75
2023-04-15T14:38:33.863Z,99795.87
2023-04-15T14:41:41.933Z,99793.34
2023-04-15T14:44:46.460Z,99789.63
2023-04-15T14:47:57.838Z,99797.31
2023-04-15T14:51:10.750Z,99800.16
2023-04-15T14:54:15.826Z,99802.00
2023-04-15T14:57:22.965Z,99800.03
2023-04-15T15:00:28.393Z,99807.94
2023-04-15T15:03:34.856Z,99819.28
2023-04-15T15:06:39.740Z,99808.56
2023-04-15T15:09:45.887Z,99811.81
2023-04-15T15:13:01.917Z,99807.97
2023-04-15T15:16:13.839Z,99812.47
2023-04-15T15:19:19.835Z,99818.75
2023-04-15T15:22:26.280Z,99822.88
2023-04-15T15:25:36.014Z,99815.94
2023-04-15T15:28:51.276Z,99824.69
2023-04-15T15:32:00.901Z,99830.69
2023-04-15T15:35:04.971Z,99835.69
2023-04-15T15:38:11.092Z,99838.19
2023-04-15T15:41:18.290Z,99843.47
2023-04-15T15:44:24.728Z,99848.56
2023-04-15T15:47:28.357Z,99851.13
2023-04-15T15:50:38.007Z,99860.69
2023-04-15T15:54:00.745Z,99859.09
2023-04-15T15:57:07.019Z,99869.47
2023-04-15T16:00:13.217Z,99872.91
2023-04-15T16:03:17.639Z,99881.47
2023-04-15T16:06:27.899Z,99868.09
2023-04-15T16:09:35.811Z,99887.41
2023-04-15T16:12:42.388Z,99889.72
2023-04-15T16:15:54.997Z,99894.53
2023-04-15T16:19:00.196Z,99883.62
2023-04-15T16:22:05.765Z,99874.69
2023-04-15T16:25:16.300Z,99876.25
2023-04-15T16:28:27.418Z,99880.56
2023-04-15T16:31:41.781Z,99884.47
2023-04-15T16:34:58.831Z,99883.41
2023-04-15T16:38:04.795Z,99884.97
2023-04-15T16:41:14.750Z,99879.78
2023-04-15T16:44:24.716Z,99886.69
2023-04-15T16:47:29.868Z,99892.06
2023-04-15T16:50:42.765Z,99899.88
2023-04-15T16:53:51.041Z,99902.66
2023-04-15T16:57:03.786Z,99911.31
2023-04-15T17:00:14.155Z,99916.53
2023-04-15T17:03:19.996Z,99924.22
2023-04-15T17:06:34.575Z,99917.06
2023-04-15T17:09:46.058Z,99927.38
2023-04-15T17:13:00.202Z,99934.25
2023-04-15T17:16:03.170Z,99929.75
2023-04-15T17:19:07.873Z,99932.41
2023-04-15T17:22:25.839Z,99942.66
2023-04-15T17:25:35.504Z,99935.69
2023-04-15T17:28:52.763Z,99931.16
2023-04-15T17:32:13.630Z,99953.75
2023-04-15T17:35:23.914Z,99952.63
2023-04-15T17:38:30.330Z,99960.25
2023-04-15T17:41:40.219Z,99961.03
2023-04-15T17:44:52.858Z,99960.97
2023-04-15T17:48:08.787Z,99960.84
2023-04-15T17:51:21.849Z,99964.19
2023-04-15T17:54:43.957Z,99971.03
2023-04-15T17:57:57.909Z,99975.28
2023-04-15T18:01:05.578Z,99979.56
2023-04-15T18:04:17.922Z,99986.56
2023-04-15T18:07:37.718Z,99984.41
2023-04-15T18:10:48.383Z,99994.69
2023-04-15T18:13:54.728Z,99994.25
2023-04-15T18:17:00.828Z,100001.38
2023-04-15T18:20:08.102Z,100007.34
2023-04-15T18:23:14.878Z,99999.38
2023-04-15T18:26:20.781Z,100017.28
2023-04-15T18:29:30.973Z,100018.66
2023-04-15T18:32:42.820Z,100027.16
2023-04-15T18:35:57.752Z,100028.91
2023-04-15T18:39:10.040Z,100036.47
2023-04-15T18:42:29.023Z,100045.81
2023-04-15T18:45:39.143Z,100055.13
2023-04-15T18:48:51.430Z,100061.19
2023-04-15T18:51:57.755Z,100055.75
2023-04-15T18:55:16.518Z,100070.38
2023-04-15T18:58:27.997Z,100064.97
2023-04-15T19:02:00.380Z,100080.28
2023-04-15T19:05:10.216Z,100085.59
2023-04-15T19:08:13.984Z,100095.25
2023-04-15T19:11:29.919Z,100094.31
2023-04-15T19:14:43.805Z,100106.38
2023-04-15T19:17:51.337Z,100114.97
2023-04-15T19:20:57.610Z,100116.00
2023-04-15T19:24:01.884Z,100118.50
2023-04-15T19:27:18.778Z,100110.44
2023-04-15T19:30:25.970Z,100128.63
2023-04-15T19:33:35.781Z,100132.59
2023-04-15T19:36:42.918Z,100136.03
2023-04-15T19:39:47.741Z,100138.91
2023-04-15T19:42:55.446Z,100139.00
2023-04-15T19:46:01.754Z,100137.19
2023-04-15T19:49:07.339Z,100153.50
2023-04-15T19:52:19.803Z,100147.34
2023-04-15T19:55:28.362Z,100157.59
2023-04-15T19:58:33.807Z,100160.06
2023-04-15T20:01:41.461Z,100152.28
2023-04-15T20:04:52.840Z,100159.47
2023-04-15T20:08:01.774Z,100148.34
2023-04-15T20:11:05.847Z,100152.63
2023-04-15T20:14:14.632Z,100142.34
2023-04-15T20:17:19.204Z,100145.69
2023-04-15T20:20:24.796Z,100145.66
2023-04-15T20:23:31.242Z,100146.66
2023-04-15T20:26:34.249Z,100144.97
2023-04-15T20:29:42.319Z,100151.94
2023-04-15T20:32:55.485Z,100156.22
2023-04-15T20:36:02.983Z,100152.50
2023-04-15T20:39:07.022Z,100157.75
2023-04-15T20:42:12.996Z,100147.91
2023-04-15T20:45:23.745Z,100159.25
2023-04-15T20:48:27.757Z,100166.88
2023-04-15T20:51:38.765Z,100165.97
2023-04-15T20:54:42.500Z,100169.22
2023-04-15T20:57:45.661Z,100178.75
2023-04-15T21:00:51.867Z,100186.41
2023-04-15T21:03:58.067Z,100192.41
2023-04-15T21:07:06.862Z,100194.78
2023-04-15T21:10:12.355Z,100203.16
2023-04-15T21:13:17.806Z,100202.19
2023-04-15T21:16:22.107Z,100208.09
2023-04-15T21:19:25.186Z,100214.94
2023-04-15T21:22:31.917Z,100216.00
2023-04-15T21:25:40.708Z,100215.84
2023-04-15T21:28:48.835Z,100201.84
2023-04-15T21:31:52.966Z,100216.84
2023-04-15T21:34:58.975Z,100207.97
2023-04-15T21:38:02.932Z,100216.84
2023-04-15T21:41:09.552Z,100223.50
2023-04-15T21:44:15.030Z,100224.50
2023-04-15T21:47:19.467Z,100227.16
2023-04-15T21:50:29.179Z,100234.25
2023-04-15T21:53:31.995Z,100229.12
2023-04-15T21:56:37.842Z,100224.88
2023-04-15T21:59:48.679Z,100225.00
2023-04-15T22:02:52.817Z,100223.16
2023-04-15T22:05:57.428Z,100224.50
2023-04-15T22:09:00.403Z,100224.22
2023-04-15T22:12:04.056Z,100232.25
2023-04-15T22:15:07.568Z,100235.03
2023-04-15T22:18:13.071Z,100238.56
2023-04-15T22:21:17.036Z,100236.91
2023-04-15T22:24:32.091Z,100235.25
2023-04-15T22:27:47.280Z,100224.03
2023-04-15T22:30:54.133Z,100220.91
2023-04-15T22:33:58.930Z,100234.78
2023-04-15T22:37:07.821Z,100235.53
2023-04-15T22:40:11.492Z,100243.16
2023-04-15T22:43:16.796Z,100245.38
2023-04-15T22:46:20.064Z,100247.91
2023-04-15T22:49:22.902Z,100250.44
2023-04-15T22:52:30.450Z,100244.28
2023-04-15T22:55:35.633Z,100245.81
2023-04-15T22:58:38.901Z,100240.50
2023-04-15T23:01:43.219Z,100239.75
2023-04-15T23:04:46.461Z,100239.50
2023-04-15T23:07:49.178Z,100245.75
2023-04-15T23:10:52.737Z,100248.16
2023-04-15T23:13:56.663Z,100236.75
2023-04-15T23:17:00.685Z,100248.28
2023-04-15T23:20:04.805Z,100252.41
2023-04-15T23:23:08.507Z,100256.63
2023-04-15T23:26:11.670Z,100254.03
2023-04-15T23:29:14.245Z,100259.31
2023-04-15T23:32:18.000Z,100261.84
2023-04-15T23:35:20.660Z,100263.41
2023-04-15T23:38:24.095Z,100271.53
2023-04-15T23:41:27.810Z,100255.44
2023-04-15T23:44:32.020Z,100271.13
2023-04-15T23:47:36.951Z,100273.34
2023-04-15T23:50:41.107Z,100270.53
2023-04-15T23:53:46.013Z,100271.16
2023-04-15T23:56:50.084Z,100268.31
2023-04-15T23:59:54.049Z,100263.06
